Time;durP1;ratioP1;P1;durP2;ratioP2;P2;SDS_P1;SDS_P2;PMS_P1;PMS_P2;Temp;Humidity;BMP_temperature;BMP_pressure;BME280_temperature;BME280_humidity;BME280_pressure;Samples;Min_cycle;Max_cycle;Signal;HPM_P1;HPM_P2
2023/12/11 00:01:37;;;;;;;21.10;3.85;;;12.80;99.90;;;;;;5029517;28;20517;-83
2023/12/11 00:04:03;;;;;;;19.95;4.07;;;12.90;99.90;;;;;;5029249;28;20029;-84
2023/12/11 00:06:28;;;;;;;23.98;4.68;;;12.80;99.90;;;;;;5029404;28;20025;-83
2023/12/11 00:08:54;;;;;;;26.88;4.47;;;12.80;99.90;;;;;;5028969;28;20037;-83
2023/12/11 00:11:20;;;;;;;23.38;4.50;;;12.80;99.90;;;;;;5011878;28;20033;-83
2023/12/11 00:13:45;;;;;;;20.15;4.57;;;12.80;99.90;;;;;;5029199;28;20535;-87
2023/12/11 00:16:11;;;;;;;20.85;4.32;;;12.90;99.90;;;;;;5029349;28;20030;-86
2023/12/11 00:18:37;;;;;;;15.85;3.80;;;12.90;99.90;;;;;;5028530;28;20401;-83
2023/12/11 00:21:02;;;;;;;28.63;4.47;;;12.90;99.90;;;;;;5028835;28;20053;-83
2023/12/11 00:23:28;;;;;;;24.23;5.00;;;12.90;99.90;;;;;;5037178;28;20033;-83
2023/12/11 00:25:54;;;;;;;19.73;3.97;;;12.90;99.90;;;;;;5049336;28;20025;-84
2023/12/11 00:28:20;;;;;;;24.58;4.55;;;12.90;99.90;;;;;;5049901;28;20025;-83
2023/12/11 00:30:45;;;;;;;24.05;5.28;;;12.90;99.90;;;;;;5048931;28;20033;-83
2023/12/11 00:33:11;;;;;;;20.02;4.13;;;12.90;99.90;;;;;;5031694;28;20107;-83
2023/12/11 00:35:37;;;;;;;23.42;4.88;;;12.90;99.90;;;;;;5028985;28;20041;-83
2023/12/11 00:38:02;;;;;;;23.13;4.97;;;13.00;99.90;;;;;;5028506;28;20021;-83
2023/12/11 00:40:28;;;;;;;25.98;3.95;;;13.00;99.90;;;;;;5028805;28;20371;-83
2023/12/11 00:42:53;;;;;;;16.63;3.88;;;12.90;99.90;;;;;;5029266;28;20409;-83
2023/12/11 00:45:19;;;;;;;19.70;3.53;;;12.90;99.90;;;;;;5029003;28;20017;-86
2023/12/11 00:47:45;;;;;;;24.73;4.07;;;12.90;99.90;;;;;;5010543;28;20036;-84
2023/12/11 00:50:10;;;;;;;21.65;3.58;;;13.00;99.90;;;;;;5028330;28;20021;-83
2023/12/11 00:52:36;;;;;;;19.90;4.35;;;13.00;99.90;;;;;;5028819;28;20083;-83
2023/12/11 00:55:02;;;;;;;21.50;4.30;;;13.00;99.90;;;;;;5028785;28;20038;-83
2023/12/11 00:57:28;;;;;;;17.20;3.30;;;13.00;99.90;;;;;;5028518;28;20026;-83
2023/12/11 00:59:53;;;;;;;14.88;3.30;;;12.90;99.90;;;;;;5029715;28;20473;-83
2023/12/11 01:02:19;;;;;;;22.60;4.25;;;12.90;99.90;;;;;;5011667;28;20030;-86
2023/12/11 01:04:44;;;;;;;27.58;4.80;;;13.00;99.90;;;;;;5032462;28;20029;-86
2023/12/11 01:07:10;;;;;;;17.98;3.45;;;13.00;99.90;;;;;;5032801;28;20026;-85
2023/12/11 01:09:36;;;;;;;24.65;5.32;;;13.00;99.90;;;;;;5032325;28;20030;-83
2023/12/11 01:12:02;;;;;;;19.17;3.90;;;13.10;99.90;;;;;;5032685;28;20075;-84
2023/12/11 01:14:28;;;;;;;22.75;3.72;;;13.00;99.90;;;;;;5032524;28;20375;-83
2023/12/11 01:16:54;;;;;;;18.08;3.67;;;13.10;99.90;;;;;;5033342;28;20033;-84
2023/12/11 01:19:19;;;;;;;19.48;4.00;;;13.10;99.90;;;;;;5032481;28;20476;-83
2023/12/11 01:21:45;;;;;;;17.55;4.03;;;13.00;99.90;;;;;;5031455;28;20053;-83
2023/12/11 01:24:12;;;;;;;23.65;4.72;;;13.00;99.90;;;;;;5014380;28;20091;-83
2023/12/11 01:26:38;;;;;;;25.15;4.00;;;13.00;99.90;;;;;;5032365;28;20035;-83
2023/12/11 01:29:04;;;;;;;21.00;3.90;;;13.10;99.90;;;;;;5031914;28;20034;-83
2023/12/11 01:31:29;;;;;;;17.25;4.18;;;13.10;99.90;;;;;;5032372;28;20068;-83
2023/12/11 01:33:55;;;;;;;15.43;4.32;;;13.10;99.90;;;;;;5032978;28;20030;-83
2023/12/11 01:36:21;;;;;;;20.02;3.35;;;13.10;99.90;;;;;;5031092;28;20099;-83
2023/12/11 01:38:47;;;;;;;19.98;3.83;;;13.10;99.90;;;;;;5032121;28;20551;-83
2023/12/11 01:41:13;;;;;;;18.75;4.30;;;13.10;99.90;;;;;;5014044;28;20060;-83
2023/12/11 01:43:38;;;;;;;20.35;3.95;;;13.10;99.90;;;;;;5014190;28;20479;-87
2023/12/11 01:46:13;;;;;;;20.00;4.00;;;13.10;99.90;;;;;;5014378;28;20021;-83
2023/12/11 01:48:39;;;;;;;22.40;3.92;;;13.10;99.90;;;;;;5031707;28;20017;-83
2023/12/11 01:51:08;;;;;;;17.83;4.63;;;13.10;99.90;;;;;;5013609;28;20030;-84
2023/12/11 01:53:34;;;;;;;18.25;4.13;;;13.10;99.90;;;;;;5031870;28;20031;-83
2023/12/11 01:56:00;;;;;;;22.15;5.40;;;13.10;99.90;;;;;;5031754;28;20049;-84
2023/12/11 01:58:29;;;;;;;21.60;4.65;;;13.10;99.90;;;;;;5032554;28;20017;-83
2023/12/11 02:00:55;;;;;;;16.02;3.67;;;13.10;99.90;;;;;;5032623;28;20482;-84
2023/12/11 02:03:22;;;;;;;24.58;4.72;;;13.10;99.90;;;;;;5013920;28;20068;-84
2023/12/11 02:05:49;;;;;;;19.45;4.00;;;13.00;99.90;;;;;;5013845;28;20063;-84
2023/12/11 02:08:16;;;;;;;23.08;4.45;;;13.00;99.90;;;;;;5013783;28;20076;-83
2023/12/11 02:10:42;;;;;;;21.63;4.03;;;13.00;99.90;;;;;;5025088;28;20030;-83
2023/12/11 02:13:08;;;;;;;22.75;4.75;;;13.10;99.90;;;;;;5014091;28;20022;-83
2023/12/11 02:15:41;;;;;;;21.23;5.10;;;13.00;99.90;;;;;;5030588;28;20041;-83
2023/12/11 02:18:09;;;;;;;29.83;5.15;;;13.00;99.90;;;;;;5031313;28;20021;-84
2023/12/11 02:20:35;;;;;;;23.23;4.83;;;13.00;99.90;;;;;;5013459;28;20401;-83
2023/12/11 02:23:06;;;;;;;27.33;5.68;;;13.00;99.90;;;;;;5031379;28;20028;-83
2023/12/11 02:25:35;;;;;;;22.17;4.90;;;13.10;99.90;;;;;;5013476;28;20087;-84
2023/12/11 02:28:02;;;;;;;24.15;4.70;;;13.10;99.90;;;;;;5026915;28;20049;-83
2023/12/11 02:30:31;;;;;;;16.73;4.22;;;13.00;99.90;;;;;;5012300;28;20390;-83
2023/12/11 02:32:56;;;;;;;19.83;5.22;;;13.10;99.90;;;;;;5012167;28;20026;-83
2023/12/11 02:35:22;;;;;;;20.48;5.30;;;13.10;99.90;;;;;;5029864;28;20033;-83
2023/12/11 02:37:48;;;;;;;20.83;5.35;;;13.20;99.90;;;;;;5031145;28;20044;-83
2023/12/11 02:40:13;;;;;;;22.52;4.78;;;13.10;99.90;;;;;;5031052;28;20030;-84
2023/12/11 02:42:48;;;;;;;16.15;4.35;;;13.10;99.90;;;;;;5032054;28;20099;-84
2023/12/11 02:45:15;;;;;;;15.52;3.95;;;13.10;99.90;;;;;;5050959;28;20578;-83
2023/12/11 02:47:40;;;;;;;22.00;4.45;;;13.10;99.90;;;;;;5042128;28;20025;-83
2023/12/11 02:50:06;;;;;;;21.15;3.97;;;13.10;99.90;;;;;;5030328;28;20033;-84
2023/12/11 02:52:32;;;;;;;21.60;4.32;;;13.00;99.90;;;;;;5031060;28;20075;-84
2023/12/11 02:54:58;;;;;;;19.92;3.88;;;13.10;99.90;;;;;;5031560;28;20034;-87
2023/12/11 02:57:23;;;;;;;19.83;3.65;;;13.20;99.90;;;;;;5030782;28;20559;-83
2023/12/11 02:59:49;;;;;;;23.30;3.92;;;13.10;99.90;;;;;;5030254;28;20033;-84
2023/12/11 03:02:15;;;;;;;18.60;3.50;;;13.10;99.90;;;;;;5047747;28;20021;-87
2023/12/11 03:04:40;;;;;;;15.52;3.50;;;13.10;99.90;;;;;;5030439;28;20026;-84
2023/12/11 03:07:06;;;;;;;14.73;3.30;;;13.10;99.90;;;;;;5030179;28;20051;-84
2023/12/11 03:09:32;;;;;;;13.13;3.00;;;13.10;99.90;;;;;;5031373;28;20504;-84
2023/12/11 03:11:58;;;;;;;15.57;3.88;;;13.00;99.90;;;;;;5013593;28;20556;-84
2023/12/11 03:14:23;;;;;;;14.63;3.85;;;13.00;99.90;;;;;;5029647;28;20125;-84
2023/12/11 03:16:49;;;;;;;19.48;3.80;;;13.00;99.90;;;;;;5030266;28;20075;-84
2023/12/11 03:19:16;;;;;;;18.08;3.47;;;13.00;99.90;;;;;;5029863;28;20033;-83
2023/12/11 03:21:42;;;;;;;12.13;3.20;;;13.00;99.90;;;;;;5029891;28;20112;-84
2023/12/11 03:24:08;;;;;;;23.40;4.53;;;13.00;99.90;;;;;;5030077;28;20520;-83
2023/12/11 03:26:34;;;;;;;20.67;3.92;;;13.00;99.90;;;;;;5012646;28;20393;-83
2023/12/11 03:28:59;;;;;;;14.68;3.20;;;13.00;99.90;;;;;;5030921;28;20038;-83
2023/12/11 03:31:25;;;;;;;20.60;3.80;;;13.00;99.90;;;;;;5029328;28;20021;-83
2023/12/11 03:33:51;;;;;;;19.48;3.65;;;13.00;99.90;;;;;;5029860;28;20037;-87
2023/12/11 03:36:16;;;;;;;17.80;4.25;;;13.00;99.90;;;;;;5029641;28;20458;-83
2023/12/11 03:38:42;;;;;;;20.10;3.95;;;13.00;99.90;;;;;;5029960;28;20028;-84
2023/12/11 03:41:07;;;;;;;17.67;4.03;;;13.00;99.90;;;;;;5029932;28;20101;-84
2023/12/11 03:43:34;;;;;;;15.50;3.13;;;13.10;99.90;;;;;;5012838;28;20267;-84
2023/12/11 03:46:01;;;;;;;16.20;3.75;;;13.00;99.90;;;;;;5029510;28;20481;-83
2023/12/11 03:48:27;;;;;;;14.45;3.55;;;13.00;99.90;;;;;;5029707;28;20031;-83
2023/12/11 03:50:53;;;;;;;18.38;4.05;;;13.00;99.90;;;;;;5029693;28;20018;-84
2023/12/11 03:53:18;;;;;;;15.20;3.20;;;13.00;99.90;;;;;;5029548;28;20037;-84
2023/12/11 03:55:44;;;;;;;12.30;3.55;;;13.00;99.90;;;;;;5028935;28;20037;-83
2023/12/11 03:58:09;;;;;;;18.75;3.67;;;13.00;99.90;;;;;;5029226;28;20076;-83
2023/12/11 04:00:35;;;;;;;17.80;4.03;;;12.90;99.90;;;;;;5030667;28;20025;-84
2023/12/11 04:03:01;;;;;;;17.92;4.03;;;12.30;99.90;;;;;;5014443;28;20022;-87
2023/12/11 04:05:26;;;;;;;13.93;3.83;;;12.90;99.90;;;;;;5021853;28;20022;-84
2023/12/11 04:07:52;;;;;;;16.40;4.03;;;12.90;99.90;;;;;;5014070;28;20037;-85
2023/12/11 04:10:18;;;;;;;19.55;3.40;;;13.00;99.90;;;;;;5029114;28;20486;-86
2023/12/11 04:12:43;;;;;;;14.77;3.45;;;12.90;99.90;;;;;;5028376;28;20064;-83
2023/12/11 04:15:10;;;;;;;16.10;3.25;;;13.00;99.90;;;;;;5028809;28;20414;-87
2023/12/11 04:17:36;;;;;;;15.52;3.50;;;12.90;99.90;;;;;;5029985;28;20014;-84
2023/12/11 04:20:03;;;;;;;17.27;3.83;;;13.00;99.90;;;;;;5029938;28;20025;-84
2023/12/11 04:22:29;;;;;;;19.23;3.55;;;13.00;99.90;;;;;;5028999;28;20018;-85
2023/12/11 04:24:55;;;;;;;14.88;3.55;;;13.00;99.90;;;;;;5045590;28;20047;-83
2023/12/11 04:27:20;;;;;;;14.27;3.35;;;12.90;99.90;;;;;;5024565;28;20034;-83
2023/12/11 04:29:46;;;;;;;14.63;3.25;;;12.90;99.90;;;;;;5028721;28;20116;-84
2023/12/11 04:32:12;;;;;;;15.70;3.47;;;12.90;99.90;;;;;;5029039;28;20029;-85
2023/12/11 04:34:37;;;;;;;18.50;3.25;;;12.90;99.90;;;;;;5028480;28;20413;-84
2023/12/11 04:37:03;;;;;;;13.02;3.17;;;12.90;99.90;;;;;;5029103;28;20072;-88
2023/12/11 04:39:29;;;;;;;15.93;3.17;;;12.90;99.90;;;;;;5028552;28;20026;-86
2023/12/11 04:41:54;;;;;;;18.00;3.47;;;12.90;99.90;;;;;;5029870;28;20029;-86
2023/12/11 04:44:20;;;;;;;18.77;3.30;;;12.90;99.90;;;;;;5038860;28;20035;-83
2023/12/11 04:46:45;;;;;;;17.27;3.30;;;12.90;99.90;;;;;;5027934;28;20022;-84
2023/12/11 04:49:11;;;;;;;20.15;3.53;;;12.90;99.90;;;;;;5028527;28;20409;-84
2023/12/11 04:51:37;;;;;;;19.60;3.72;;;12.80;99.90;;;;;;5027544;28;20037;-84
2023/12/11 04:54:03;;;;;;;15.27;3.80;;;12.90;99.90;;;;;;5028603;28;20025;-85
2023/12/11 04:56:28;;;;;;;17.90;3.72;;;12.80;99.90;;;;;;5028422;28;20484;-85
2023/12/11 04:58:54;;;;;;;15.20;3.30;;;12.90;99.90;;;;;;5028738;28;20053;-86
2023/12/11 05:01:20;;;;;;;16.58;4.00;;;12.90;99.90;;;;;;5011016;28;20099;-86
2023/12/11 05:03:45;;;;;;;8.98;3.17;;;12.90;99.90;;;;;;5009026;28;20030;-84
2023/12/11 05:06:11;;;;;;;15.20;3.33;;;12.90;99.90;;;;;;5009060;28;20397;-83
2023/12/11 05:08:37;;;;;;;19.52;3.47;;;12.90;99.90;;;;;;5045165;28;20044;-87
2023/12/11 05:11:03;;;;;;;16.48;3.28;;;12.90;99.90;;;;;;5030957;28;20029;-86
2023/12/11 05:13:28;;;;;;;16.98;3.58;;;12.90;99.90;;;;;;5047176;28;20383;-85
2023/12/11 05:15:54;;;;;;;15.88;4.13;;;12.90;99.90;;;;;;5027151;28;20508;-83
2023/12/11 05:18:20;;;;;;;20.08;3.47;;;12.80;99.90;;;;;;5028267;28;20064;-86
2023/12/11 05:20:46;;;;;;;15.65;3.55;;;12.80;99.90;;;;;;5032913;28;20029;-83
2023/12/11 05:23:11;;;;;;;15.60;3.22;;;12.80;99.90;;;;;;5048298;28;20024;-86
2023/12/11 05:25:37;;;;;;;16.30;2.97;;;12.80;99.90;;;;;;5023115;28;20060;-84
2023/12/11 05:28:03;;;;;;;19.13;3.00;;;12.70;99.90;;;;;;5023761;28;20105;-83
2023/12/11 05:30:29;;;;;;;20.27;3.70;;;12.80;99.90;;;;;;5027995;28;20335;-86
2023/12/11 05:32:54;;;;;;;14.27;3.00;;;12.80;99.90;;;;;;5030076;28;20451;-82
2023/12/11 05:35:20;;;;;;;9.73;2.95;;;12.70;99.90;;;;;;5034525;28;20041;-82
2023/12/11 05:37:45;;;;;;;16.45;3.60;;;12.70;99.90;;;;;;5040308;28;20492;-84
2023/12/11 05:40:11;;;;;;;23.02;3.58;;;12.60;99.90;;;;;;5037595;28;20053;-84
2023/12/11 05:42:37;;;;;;;15.70;3.60;;;12.60;99.90;;;;;;5014887;28;20024;-84
2023/12/11 05:45:03;;;;;;;15.02;3.35;;;12.60;99.90;;;;;;4993948;28;20124;-85
2023/12/11 05:47:29;;;;;;;16.38;3.88;;;12.60;99.90;;;;;;5027305;28;20021;-83
2023/12/11 05:49:54;;;;;;;12.48;2.88;;;12.50;99.90;;;;;;5030216;28;20033;-84
2023/12/11 05:52:20;;;;;;;15.18;3.35;;;12.50;99.90;;;;;;5031957;28;20021;-83
2023/12/11 05:54:45;;;;;;;17.73;3.83;;;12.50;99.90;;;;;;5031823;28;20037;-85
2023/12/11 05:57:11;;;;;;;14.02;3.20;;;12.40;99.90;;;;;;5031290;28;20053;-84
2023/12/11 05:59:37;;;;;;;15.35;3.30;;;12.40;99.90;;;;;;5031794;28;20030;-83
2023/12/11 06:02:02;;;;;;;7.57;2.58;;;12.30;99.90;;;;;;5013850;28;20017;-85
2023/12/11 06:04:28;;;;;;;11.90;2.88;;;12.30;99.90;;;;;;5031584;28;20022;-83
2023/12/11 06:06:54;;;;;;;10.00;2.97;;;12.30;99.90;;;;;;5031479;28;20401;-85
2023/12/11 06:09:19;;;;;;;12.60;2.92;;;12.20;99.90;;;;;;5031569;28;20497;-83
2023/12/11 06:11:45;;;;;;;12.23;2.97;;;12.20;99.90;;;;;;5031546;28;20025;-87
2023/12/11 06:14:11;;;;;;;17.35;3.28;;;12.20;99.90;;;;;;5032069;28;20136;-83
2023/12/11 06:16:36;;;;;;;23.55;4.10;;;12.10;99.90;;;;;;5032341;28;20394;-86
2023/12/11 06:19:02;;;;;;;19.25;4.03;;;12.10;99.90;;;;;;5013807;28;20099;-84
2023/12/11 06:21:28;;;;;;;19.58;3.97;;;12.20;99.90;;;;;;5031401;28;20513;-85
2023/12/11 06:23:53;;;;;;;17.00;4.13;;;12.20;99.90;;;;;;5031220;28;20045;-88
2023/12/11 06:26:28;;;;;;;15.50;4.28;;;12.20;99.90;;;;;;5013481;28;20477;-83
2023/12/11 06:28:54;;;;;;;14.15;3.90;;;12.20;99.90;;;;;;5031231;28;20024;-84
2023/12/11 06:31:20;;;;;;;21.65;4.05;;;12.20;99.90;;;;;;5031350;28;20021;-84
2023/12/11 06:33:45;;;;;;;17.13;4.50;;;12.20;99.90;;;;;;5031245;28;20049;-84
2023/12/11 06:36:12;;;;;;;19.15;3.88;;;12.20;99.90;;;;;;5031901;28;20039;-85
2023/12/11 06:38:39;;;;;;;18.83;3.50;;;11.40;99.90;;;;;;5031874;28;20067;-83
2023/12/11 06:41:05;;;;;;;17.95;3.22;;;12.30;99.90;;;;;;5031028;28;20037;-85
2023/12/11 06:43:30;;;;;;;19.90;4.40;;;12.30;99.90;;;;;;5031009;28;20030;-86
2023/12/11 06:45:56;;;;;;;22.80;3.97;;;12.30;99.90;;;;;;5031121;28;20386;-86
2023/12/11 06:48:22;;;;;;;15.77;4.20;;;12.30;99.90;;;;;;5030911;28;20508;-86
2023/12/11 06:50:48;;;;;;;20.20;4.43;;;12.20;99.90;;;;;;5030864;28;20029;-85
2023/12/11 06:53:14;;;;;;;13.77;3.70;;;12.20;99.90;;;;;;5030877;28;20033;-84
2023/12/11 06:55:39;;;;;;;15.73;3.97;;;12.20;99.90;;;;;;5031460;28;20033;-87
2023/12/11 06:58:05;;;;;;;20.48;4.50;;;12.20;99.90;;;;;;5030821;28;20037;-86
2023/12/11 07:00:30;;;;;;;15.68;3.78;;;12.30;99.90;;;;;;5030301;28;20033;-84
2023/12/11 07:02:56;;;;;;;22.70;4.15;;;12.20;99.90;;;;;;5030747;28;20436;-83
2023/12/11 07:05:22;;;;;;;19.27;3.65;;;12.20;99.90;;;;;;5030636;28;20032;-84
2023/12/11 07:07:47;;;;;;;19.50;3.63;;;12.20;99.90;;;;;;5030621;28;20478;-86
2023/12/11 07:10:13;;;;;;;18.77;3.92;;;12.20;99.90;;;;;;5031268;28;20029;-85
2023/12/11 07:12:42;;;;;;;21.65;4.13;;;12.80;99.90;;;;;;5031265;28;20526;-85
2023/12/11 07:15:08;;;;;;;17.70;3.28;;;12.20;99.90;;;;;;5030385;28;20025;-85
2023/12/11 07:17:34;;;;;;;12.85;2.58;;;12.10;99.90;;;;;;5030343;28;20243;-85
2023/12/11 07:19:59;;;;;;;18.67;3.60;;;12.20;99.90;;;;;;5030337;28;20474;-86
2023/12/11 07:22:25;;;;;;;16.40;3.28;;;12.20;99.90;;;;;;5030321;28;20052;-85
2023/12/11 07:24:50;;;;;;;16.42;4.00;;;12.10;99.90;;;;;;5030147;28;20068;-85
2023/12/11 07:27:16;;;;;;;15.77;3.10;;;12.20;99.90;;;;;;5012324;28;20032;-84
2023/12/11 07:29:42;;;;;;;18.20;3.50;;;12.20;99.90;;;;;;5031084;28;20192;-85
2023/12/11 07:32:07;;;;;;;21.33;3.47;;;12.10;99.90;;;;;;5030160;28;20025;-84
2023/12/11 07:34:33;;;;;;;31.95;4.65;;;12.10;99.90;;;;;;5030050;28;20041;-85
2023/12/11 07:36:58;;;;;;;14.25;3.65;;;12.00;99.90;;;;;;5030009;28;20053;-84
2023/12/11 07:39:24;;;;;;;15.65;3.25;;;12.10;99.90;;;;;;5029840;28;20034;-85
2023/12/11 07:41:50;;;;;;;15.85;3.15;;;12.10;99.90;;;;;;5012332;28;20116;-85
2023/12/11 07:44:15;;;;;;;12.43;3.10;;;12.00;99.90;;;;;;5030109;28;20384;-83
2023/12/11 07:46:41;;;;;;;16.23;3.28;;;12.00;99.90;;;;;;5030778;28;20025;-86
2023/12/11 07:49:07;;;;;;;18.15;3.22;;;12.00;99.90;;;;;;5029815;28;20056;-85
2023/12/11 07:51:33;;;;;;;18.88;3.25;;;12.00;99.90;;;;;;5029646;28;20025;-86
2023/12/11 07:53:58;;;;;;;15.73;3.65;;;12.00;99.90;;;;;;5029687;28;20025;-85
2023/12/11 07:56:25;;;;;;;22.60;3.53;;;12.00;99.90;;;;;;5029760;28;20452;-86
2023/12/11 07:58:51;;;;;;;16.13;3.28;;;12.00;99.90;;;;;;5029590;28;20018;-85
2023/12/11 08:01:18;;;;;;;17.38;3.03;;;12.00;99.90;;;;;;5029649;28;20033;-85
2023/12/11 08:03:44;;;;;;;20.00;4.10;;;12.10;99.90;;;;;;5030402;28;20022;-86
2023/12/11 08:06:10;;;;;;;14.32;3.17;;;12.10;99.90;;;;;;5029573;28;20022;-86
2023/12/11 08:08:40;;;;;;;16.33;3.50;;;12.00;99.90;;;;;;5029435;28;20044;-86
2023/12/11 08:11:21;;;;;;;23.00;3.90;;;12.10;99.90;;;;;;5011402;28;20470;-86
2023/12/11 08:13:48;;;;;;;22.83;4.00;;;12.10;99.90;;;;;;5029399;28;20101;-83
2023/12/11 08:16:14;;;;;;;19.35;3.58;;;12.10;99.90;;;;;;5030108;28;20033;-86
2023/12/11 08:18:44;;;;;;;17.58;3.78;;;12.00;99.90;;;;;;5029390;28;20018;-84
2023/12/11 08:21:10;;;;;;;18.75;3.85;;;12.00;99.90;;;;;;5029273;28;20485;-86
2023/12/11 08:23:43;;;;;;;19.83;3.70;;;12.00;99.90;;;;;;5011278;28;20397;-87
2023/12/11 08:26:09;;;;;;;18.85;3.75;;;12.10;99.90;;;;;;5012008;28;20021;-88
2023/12/11 08:28:35;;;;;;;15.75;3.25;;;12.00;99.90;;;;;;5029135;28;20030;-85
2023/12/11 08:31:03;;;;;;;18.75;4.25;;;12.10;99.90;;;;;;5029266;28;20481;-86
2023/12/11 08:33:29;;;;;;;21.48;3.65;;;12.20;99.90;;;;;;5029031;28;20060;-85
2023/12/11 08:35:54;;;;;;;15.25;3.22;;;12.10;99.90;;;;;;5029159;28;20037;-86
2023/12/11 08:38:22;;;;;;;14.98;3.53;;;12.10;99.90;;;;;;5029087;28;20440;-86
2023/12/11 08:40:49;;;;;;;14.18;3.55;;;12.20;99.90;;;;;;5029916;28;20056;-87
2023/12/11 08:43:15;;;;;;;11.93;3.25;;;12.80;99.90;;;;;;5011955;28;20029;-83
2023/12/11 08:45:40;;;;;;;14.18;3.08;;;12.30;99.90;;;;;;5028963;28;20025;-87
2023/12/11 08:48:06;;;;;;;15.20;3.20;;;12.30;99.90;;;;;;5028855;28;20362;-85
2023/12/11 08:50:32;;;;;;;17.80;3.38;;;12.40;99.90;;;;;;5029061;28;20025;-85
2023/12/11 08:53:00;;;;;;;17.02;3.38;;;12.30;99.90;;;;;;5028818;28;20101;-84
2023/12/11 08:55:25;;;;;;;13.45;3.50;;;12.40;99.90;;;;;;5028893;28;20034;-86
2023/12/11 08:57:51;;;;;;;14.85;3.40;;;12.40;99.90;;;;;;5011530;28;20560;-84
2023/12/11 09:00:17;;;;;;;17.00;3.72;;;12.50;99.90;;;;;;5029601;28;20489;-86
2023/12/11 09:02:43;;;;;;;11.10;3.15;;;12.50;99.90;;;;;;5028800;28;20048;-84
2023/12/11 09:05:09;;;;;;;20.13;3.63;;;12.60;99.90;;;;;;5028810;28;20018;-86
2023/12/11 09:07:34;;;;;;;16.92;3.13;;;12.60;99.90;;;;;;5028719;28;20037;-87
2023/12/11 09:10:01;;;;;;;17.85;3.50;;;12.70;99.90;;;;;;5028755;28;20025;-87
2023/12/11 09:12:27;;;;;;;13.63;3.25;;;12.80;99.90;;;;;;5028666;28;20025;-85
2023/12/11 09:14:53;;;;;;;15.32;3.00;;;12.80;99.90;;;;;;5028779;28;20040;-85
2023/12/11 09:17:19;;;;;;;14.40;4.22;;;12.90;99.90;;;;;;5029477;28;20017;-84
2023/12/11 09:19:44;;;;;;;17.17;3.60;;;12.90;99.90;;;;;;5028682;28;20066;-85
2023/12/11 09:22:11;;;;;;;18.92;4.72;;;12.90;99.90;;;;;;5010983;28;20254;-85
2023/12/11 09:24:37;;;;;;;12.57;3.72;;;13.00;99.90;;;;;;5031393;28;20140;-83
2023/12/11 09:27:03;;;;;;;16.02;3.40;;;13.00;99.90;;;;;;5032563;28;20089;-86
2023/12/11 09:29:29;;;;;;;15.30;2.95;;;13.10;99.90;;;;;;5032328;28;20014;-84
2023/12/11 09:31:55;;;;;;;15.88;3.40;;;13.10;99.90;;;;;;5032373;28;20063;-85
2023/12/11 09:34:21;;;;;;;16.75;4.15;;;13.20;99.90;;;;;;5032748;28;20068;-85
2023/12/11 09:36:46;;;;;;;12.65;3.67;;;13.20;99.90;;;;;;5033078;28;20037;-87
2023/12/11 09:39:12;;;;;;;13.43;3.00;;;13.30;99.90;;;;;;5032239;28;20029;-84
2023/12/11 09:41:39;;;;;;;9.85;3.10;;;13.30;99.90;;;;;;5032237;28;20029;-86
2023/12/11 09:44:05;;;;;;;12.32;2.80;;;13.40;99.90;;;;;;5032059;28;20026;-86
2023/12/11 09:46:37;;;;;;;13.70;3.60;;;13.40;99.90;;;;;;5031939;28;20034;-87
2023/12/11 09:49:03;;;;;;;12.07;3.13;;;13.50;99.90;;;;;;5032070;28;20087;-87
2023/12/11 09:51:30;;;;;;;14.13;3.05;;;13.50;99.90;;;;;;5031981;28;20421;-84
2023/12/11 09:53:56;;;;;;;12.57;3.15;;;13.60;99.90;;;;;;5014241;28;20025;-86
2023/12/11 09:56:23;;;;;;;17.50;3.63;;;13.50;99.90;;;;;;5032763;28;20067;-87
2023/12/11 09:58:49;;;;;;;12.60;3.20;;;13.60;99.90;;;;;;5032629;28;20041;-86
2023/12/11 10:01:16;;;;;;;12.90;3.97;;;13.60;99.90;;;;;;5031780;28;20026;-85
2023/12/11 10:03:41;;;;;;;9.23;3.30;;;13.60;99.90;;;;;;5031903;28;20061;-86
2023/12/11 10:06:07;;;;;;;10.00;3.13;;;13.70;99.90;;;;;;5013989;28;20107;-87
2023/12/11 10:08:43;;;;;;;11.27;3.65;;;13.70;99.90;;;;;;5031726;28;20037;-85
2023/12/11 10:11:16;;;;;;;12.45;3.53;;;13.80;99.90;;;;;;5013876;28;20116;-88
2023/12/11 10:13:41;;;;;;;13.50;3.00;;;13.80;99.90;;;;;;5031467;28;20397;-87
2023/12/11 10:16:28;;;;;;;13.18;3.15;;;13.80;99.90;;;;;;5031413;28;20108;-87
2023/12/11 10:18:54;;;;;;;13.75;3.03;;;13.70;99.90;;;;;;5032223;28;20018;-83
2023/12/11 10:21:21;;;;;;;17.52;4.05;;;13.70;99.90;;;;;;5032266;28;20057;-86
2023/12/11 10:24:01;;;;;;;10.97;3.60;;;13.60;99.90;;;;;;5031204;28;20030;-86
2023/12/11 10:26:27;;;;;;;9.25;3.25;;;13.80;99.90;;;;;;5031324;28;20101;-87
2023/12/11 10:28:53;;;;;;;10.75;2.92;;;13.90;99.90;;;;;;5032039;28;20508;-85
2023/12/11 10:31:19;;;;;;;9.02;3.22;;;13.90;99.90;;;;;;5031827;28;20152;-85
2023/12/11 10:33:51;;;;;;;11.45;2.70;;;13.90;99.90;;;;;;5031279;28;20108;-87
2023/12/11 10:36:17;;;;;;;9.27;2.70;;;13.80;99.90;;;;;;5030287;28;20087;-85
2023/12/11 10:38:43;;;;;;;9.07;2.58;;;13.90;99.90;;;;;;5031202;28;20101;-85
2023/12/11 10:41:23;;;;;;;13.43;3.03;;;13.90;99.90;;;;;;5031167;28;20393;-87
2023/12/11 10:43:48;;;;;;;9.25;3.42;;;13.90;99.90;;;;;;5031166;28;20021;-85
2023/12/11 10:46:14;;;;;;;7.75;3.08;;;13.90;99.90;;;;;;5013219;28;20048;-85
2023/12/11 10:48:40;;;;;;;9.32;3.10;;;13.90;99.90;;;;;;5030908;28;20044;-84
2023/12/11 10:51:06;;;;;;;8.32;2.80;;;14.30;99.90;;;;;;5030873;28;20030;-86
2023/12/11 10:53:35;;;;;;;10.50;2.88;;;14.00;99.90;;;;;;5030856;28;20124;-85
2023/12/11 10:56:02;;;;;;;8.57;2.85;;;14.30;99.90;;;;;;5013072;28;20029;-84
2023/12/11 10:58:28;;;;;;;14.18;3.72;;;14.10;99.90;;;;;;5013045;28;20032;-84
2023/12/11 11:00:56;;;;;;;13.30;3.17;;;14.30;99.90;;;;;;5031593;28;20021;-86
2023/12/11 11:03:23;;;;;;;6.95;2.70;;;14.20;99.90;;;;;;5031468;28;20022;-87
2023/12/11 11:05:51;;;;;;;11.88;2.78;;;14.40;99.90;;;;;;5030655;28;20033;-85
2023/12/11 11:08:36;;;;;;;10.38;2.30;;;14.50;99.90;;;;;;5030648;28;20470;-85
2023/12/11 11:11:32;;;;;;;8.10;2.63;;;14.10;99.90;;;;;;5030592;28;20047;-86
2023/12/11 11:14:29;;;;;;;12.35;2.88;;;14.10;99.90;;;;;;5030397;28;20017;-86
2023/12/11 11:16:57;;;;;;;12.37;2.70;;;14.10;99.90;;;;;;5013263;28;20532;-86
2023/12/11 11:19:24;;;;;;;5.97;2.17;;;14.40;99.90;;;;;;5031258;28;20466;-85
2023/12/11 11:22:06;;;;;;;6.82;2.38;;;14.40;99.90;;;;;;5030267;28;20104;-84
2023/12/11 11:24:34;;;;;;;9.73;2.30;;;14.50;99.90;;;;;;5030419;28;20045;-85
2023/12/11 11:27:00;;;;;;;;;;;14.30;99.90;;;;;;5030706;28;20018;-87
2023/12/11 11:29:42;;;;;;;9.70;2.95;;;14.60;99.90;;;;;;5031059;28;20254;-85
2023/12/11 11:32:11;;;;;;;6.65;2.60;;;14.50;99.90;;;;;;5030043;28;20508;-85
2023/12/11 11:34:39;;;;;;;6.18;2.75;;;14.40;99.90;;;;;;5029861;28;20039;-86
2023/12/11 11:37:14;;;;;;;10.10;2.78;;;14.60;99.90;;;;;;5030190;28;20037;-87
2023/12/11 11:40:05;;;;;;;8.95;2.80;;;14.40;99.90;;;;;;5030006;28;20068;-86
2023/12/11 11:42:35;;;;;;;7.35;2.30;;;14.50;99.90;;;;;;5030020;28;20078;-86
2023/12/11 11:45:07;;;;;;;10.70;2.28;;;14.60;99.90;;;;;;5029848;28;20017;-84
2023/12/11 11:47:34;;;;;;;7.10;2.15;;;14.60;99.90;;;;;;5029863;28;20024;-86
2023/12/11 11:50:07;;;;;;;7.15;2.20;;;14.70;99.90;;;;;;5029912;28;20381;-84
2023/12/11 11:52:35;;;;;;;9.40;2.33;;;14.60;99.90;;;;;;5011918;28;20168;-85
2023/12/11 11:55:10;;;;;;;6.65;2.20;;;14.70;99.90;;;;;;5011927;28;20486;-86
2023/12/11 11:57:36;;;;;;;7.15;2.50;;;14.60;99.90;;;;;;5029526;28;20057;-85
2023/12/11 12:00:05;;;;;;;5.35;2.05;;;14.70;99.90;;;;;;5029729;28;20103;-84
2023/12/11 12:02:31;;;;;;;10.20;2.30;;;14.60;99.90;;;;;;5029619;28;20029;-84
2023/12/11 12:05:09;;;;;;;7.38;2.25;;;14.80;99.90;;;;;;5030360;28;20386;-85
2023/12/11 12:07:41;;;;;;;5.17;2.00;;;14.70;99.90;;;;;;5029636;28;20033;-85
2023/12/11 12:10:11;;;;;;;8.05;2.40;;;14.80;99.90;;;;;;5029410;28;20269;-87
2023/12/11 12:12:36;;;;;;;7.70;2.65;;;14.70;99.90;;;;;;5029453;28;20021;-84
2023/12/11 12:15:04;;;;;;;4.25;2.33;;;14.80;99.90;;;;;;5029352;28;20092;-86
2023/12/11 12:17:30;;;;;;;6.05;2.22;;;14.70;99.90;;;;;;5030270;28;20104;-88
2023/12/11 12:19:56;;;;;;;6.20;2.60;;;14.60;99.90;;;;;;5030113;28;20095;-86
2023/12/11 12:22:21;;;;;;;8.05;2.13;;;15.00;99.90;;;;;;5011615;28;20029;-86
2023/12/11 12:24:51;;;;;;;6.75;2.50;;;14.80;99.90;;;;;;5029109;28;20060;-84
2023/12/11 12:27:20;;;;;;;4.53;1.63;;;14.80;99.90;;;;;;5029126;28;20017;-86
2023/12/11 12:29:46;;;;;;;6.97;1.70;;;14.80;99.90;;;;;;5029155;28;20032;-87
2023/12/11 12:32:14;;;;;;;5.32;1.50;;;14.80;99.90;;;;;;5029121;28;20105;-86
2023/12/11 12:34:44;;;;;;;7.00;1.48;;;14.90;99.90;;;;;;5029042;28;20047;-86
2023/12/11 12:37:10;;;;;;;4.70;1.48;;;14.80;99.90;;;;;;5029583;28;20052;-87